Latest Weather Observations for Rabbit Flat

IDD60801

Issued at 12:35 pm CST Thursday 31 July 2014 (issued every 30 minutes, with the page automatically refreshed every 10 minutes)

About weather observations | Map of weather stations | Latest weather observations for NT | Other Formats
Station Details ID: 015666 Name: RABBIT FLAT Lat: -20.82 Lon: 130.01 Height: 340.0 m
Data from the previous 72 hours. | See also: Recent months at Rabbit Flat
Date/Time
CST
Temp
°C
App
Temp
°C
Dew
Point
Rel
Hum
%
Delta-T
°C
Wind Press
QNH
hPa
Press
MSL
hPa
Rain
since 9 am
mm
Dir
 
Spd
km/h
Gust
km/h
Spd
kts
Gust
kts
31/12:30pm 27.7 23.6 -3.2 13 13.9 S 9 15 5 8 1019.0 - 0.0
31/12:00pm 27.1 22.7 -2.4 14 13.4 ESE 11 17 6 9 1019.4 1018.9 0.0
31/11:30am 27.0 22.2 -2.7 14 13.4 ESE 13 20 7 11 1019.8 - 0.0
31/11:00am 25.9 21.6 -1.8 16 12.6 ESE 11 17 6 9 1020.1 - 0.0
31/10:30am 23.9 20.2 -0.1 20 11.1 SSE 9 13 5 7 1020.4 - 0.0
31/10:00am 21.8 18.2 0.8 25 9.7 SSE 9 13 5 7 1020.5 - 0.0
31/09:30am 19.7 16.2 1.1 29 8.5 SSE 9 13 5 7 1020.5 - 0.0
31/09:00am 17.5 14.1 2.0 35 7.1 SSE 9 11 5 6 1020.5 1019.9 0.0
31/08:30am 13.8 11.6 3.6 50 4.7 SSW 4 9 2 5 1020.2 - 0.0
31/08:00am 8.7 6.3 4.5 75 1.9 SW 6 7 3 4 1020.0 - 0.0
31/07:30am 6.8 4.7 3.8 81 1.3 SW 4 7 2 4 1019.8 - 0.0
31/07:00am 6.7 4.1 3.4 79 1.4 SW 6 7 3 4 1019.5 - 0.0
31/06:30am 6.8 4.4 4.1 83 1.2 SW 6 7 3 4 1019.3 - 0.0
31/06:00am 7.2 4.7 3.8 79 1.5 SSW 6 7 3 4 1019.1 1018.4 0.0
31/05:30am 7.5 6.2 4.1 79 1.5 CALM 0 0 0 0 1018.7 - 0.0
31/05:00am 8.2 7.0 4.6 78 1.6 CALM 0 0 0 0 1018.5 - 0.0
31/04:30am 8.5 7.4 5.0 78 1.6 CALM 0 0 0 0 1018.5 - 0.0
31/04:00am 10.1 7.5 4.1 66 2.7 SSW 7 9 4 5 1018.6 - 0.0
31/03:30am 11.0 8.2 3.4 59 3.4 SSW 7 9 4 5 1018.6 - 0.0
31/03:00am 9.7 6.7 4.1 68 2.5 SSW 9 11 5 6 1018.7 1018.1 0.0
31/02:30am 9.7 6.6 3.6 66 2.7 SSW 9 11 5 6 1018.8 - 0.0
31/02:00am 9.3 7.6 4.2 70 2.3 SSW 2 7 1 4 1018.8 - 0.0
31/01:30am 9.6 8.2 3.5 66 2.7 CALM 0 0 0 0 1019.1 - 0.0
31/01:00am 10.1 8.7 3.8 65 2.8 CALM 0 0 0 0 1019.0 - 0.0
31/12:30am 10.5 9.1 3.8 63 3.0 CALM 0 0 0 0 1018.8 - 0.0
31/12:00am 10.5 8.1 4.1 64 2.9 S 6 7 3 4 1019.0 1018.3 0.0
 
Date/Time
CST
Temp
°C
App
Temp
°C
Dew
Point
Rel
Hum
%
Delta-T
°C
Wind Press
QNH
hPa
Press
MSL
hPa
Rain
since 9 am
mm
Dir
 
Spd
km/h
Gust
km/h
Spd
kts
Gust
kts
30/11:30pm 11.6 9.2 4.4 61 3.3 S 6 7 3 4 1019.1 - 0.0
30/11:00pm 14.9 12.1 3.1 45 5.4 S 7 9 4 5 1019.2 - 0.0
30/10:30pm 14.1 10.4 2.6 46 5.2 S 11 15 6 8 1019.3 - 0.0
30/10:00pm 12.8 11.6 4.4 56 3.9 CALM 0 0 0 0 1019.3 - 0.0
30/09:30pm 12.8 10.3 3.9 54 4.1 SSE 6 7 3 4 1019.3 - 0.0
30/09:00pm 15.3 12.7 4.3 48 5.2 SE 7 9 4 5 1019.1 1018.4 0.0
30/08:30pm 16.0 13.4 4.4 46 5.5 SSE 7 9 4 5 1018.8 - 0.0
30/08:00pm 17.0 14.7 5.6 47 5.6 SSE 7 9 4 5 1018.6 - 0.0
30/07:30pm 19.2 16.6 4.4 37 7.2 S 7 11 4 6 1018.3 - 0.0
30/07:00pm 19.6 17.6 6.4 42 6.7 S 6 7 3 4 1018.0 - 0.0
30/06:30pm 23.5 21.7 5.2 30 9.3 S 4 6 2 3 1017.8 - 0.0
30/06:00pm 26.7 23.8 2.4 20 12.0 S 7 7 4 4 1017.5 1016.9 0.0
30/05:30pm 27.8 24.9 1.5 18 12.9 S 6 9 3 5 1017.3 - 0.0
30/05:00pm 27.8 23.4 -2.4 13 13.8 ESE 11 17 6 9 1017.2 - 0.0
30/04:30pm 28.0 24.1 -1.4 14 13.7 ESE 9 13 5 7 1017.2 - 0.0
30/04:00pm 28.5 24.5 -1.9 13 14.1 E 9 17 5 9 1017.2 - 0.0
30/03:30pm 28.3 24.3 -2.0 13 14.0 ENE 9 17 5 9 1017.5 - 0.0
30/03:00pm 28.4 23.5 -3.2 12 14.3 ENE 13 24 7 13 1017.9 1017.3 0.0
30/02:30pm 28.3 22.5 -4.5 11 14.5 NNE 17 22 9 12 1018.3 - 0.0
30/02:00pm 27.8 22.9 -3.4 13 14.0 ESE 13 20 7 11 1018.8 - 0.0
30/01:30pm 28.3 23.2 -5.1 11 14.6 E 13 20 7 11 1019.5 - 0.0
30/01:00pm 27.3 22.2 -4.9 12 14.0 E 13 22 7 12 1020.1 - 0.0
30/12:30pm 27.0 20.5 -7.7 9 14.3 NE 19 30 10 16 1020.7 - 0.0
30/12:00pm 25.9 20.1 -4.8 13 13.2 ENE 17 24 9 13 1021.2 1020.6 0.0
30/11:30am 26.2 19.8 -6.7 11 13.7 NE 19 28 10 15 1021.5 - 0.0
30/11:00am 24.7 18.1 -6.7 12 12.9 ENE 20 32 11 17 1021.8 - 0.0
30/10:30am 24.0 19.1 -3.4 16 11.9 ENE 13 20 7 11 1022.1 - 0.0
30/10:00am 22.1 16.2 -2.6 19 10.7 NE 19 24 10 13 1022.3 - 0.0
30/09:30am 19.0 15.9 1.6 31 8.0 ESE 7 11 4 6 1022.1 - 0.0
30/09:00am 16.8 13.9 2.7 39 6.5 SSE 7 7 4 4 1021.9 1021.4 0.0
30/08:30am 14.4 12.2 5.2 54 4.4 S 6 7 3 4 1021.7 - 0.0
30/08:26am 13.5 11.3 5.3 57 3.9 S 6 7 3 4 1021.6 - 0.0
30/08:00am 8.5 7.4 5.2 80 1.5 CALM 0 0 0 0 1021.3 - 0.0
30/07:30am 6.4 4.7 4.1 85 1.0 S 2 7 1 4 1021.0 - 0.0
30/07:00am 7.3 5.4 4.8 84 1.1 S 4 6 2 3 1020.6 - 0.0
30/06:30am 7.4 4.4 4.2 80 1.4 S 9 11 5 6 1020.0 - 0.0
30/06:00am 7.9 5.4 4.8 81 1.4 S 7 9 4 5 1019.9 1019.3 0.0
30/05:30am 8.3 6.0 5.0 80 1.5 SSW 6 7 3 4 1019.7 - 0.0
30/05:00am 8.1 5.6 4.8 80 1.5 SSW 7 7 4 4 1019.6 - 0.0
30/04:30am 8.1 5.9 5.2 82 1.3 S 6 7 3 4 1019.6 - 0.0
30/04:00am 8.3 7.0 4.3 76 1.8 CALM 0 0 0 0 1019.5 - 0.0
30/03:30am 8.8 7.6 4.8 76 1.8 CALM 0 0 0 0 1019.7 - 0.0
30/03:00am 8.9 7.7 4.7 75 1.9 CALM 0 0 0 0 1019.8 1019.2 0.0
30/02:30am 9.1 7.9 4.7 74 2.0 CALM 0 0 0 0 1020.1 - 0.0
30/02:00am 9.9 8.7 4.6 69 2.4 CALM 0 0 0 0 1020.3 - 0.0
30/01:30am 10.8 9.5 4.2 64 3.0 CALM 0 0 0 0 1020.5 - 0.0
30/01:00am 13.7 11.1 4.2 52 4.4 S 7 9 4 5 1020.6 - 0.0
30/12:30am 14.0 11.4 4.1 51 4.6 SSE 7 9 4 5 1020.7 - 0.0
30/12:00am 14.2 11.8 5.4 55 4.2 ESE 7 13 4 7 1020.8 1020.2 0.0
 
Date/Time
CST
Temp
°C
App
Temp
°C
Dew
Point
Rel
Hum
%
Delta-T
°C
Wind Press
QNH
hPa
Press
MSL
hPa
Rain
since 9 am
mm
Dir
 
Spd
km/h
Gust
km/h
Spd
kts
Gust
kts
29/11:30pm 14.7 12.0 5.8 55 4.3 S 9 11 5 6 1020.8 - 0.0
29/11:00pm 14.6 11.5 5.7 55 4.3 S 11 13 6 7 1020.9 - 0.0
29/10:30pm 16.6 13.6 3.9 42 6.0 S 9 11 5 6 1020.9 - 0.0
29/10:07pm 15.5 12.6 4.5 48 5.2 S 9 - 5 - - 1020.3 0.0
29/10:00pm 15.6 13.0 4.1 46 5.4 S 7 9 4 5 1020.8 - 0.0
29/09:30pm 17.8 15.4 5.4 44 6.1 SSE 7 11 4 6 1020.6 - 0.0
29/09:00pm 18.0 14.7 2.5 35 7.2 S 9 13 5 7 1020.3 - 0.0
29/08:30pm 17.1 15.0 6.7 50 5.2 ESE 7 11 4 6 1020.0 - 0.0
29/08:00pm 16.7 14.8 6.7 51 5.0 S 6 9 3 5 1019.8 - 0.0
29/07:30pm 19.6 16.5 3.6 34 7.7 S 9 9 5 5 1019.5 - 0.0
29/07:00pm 21.4 20.1 7.7 41 7.2 S 4 7 2 4 1019.2 - 0.0
29/06:30pm 24.5 21.7 3.3 25 10.5 S 7 11 4 6 1018.8 - 0.0
29/06:00pm 27.0 23.0 0.8 18 12.6 SSE 11 15 6 8 1018.5 1017.9 0.0
29/05:30pm 28.0 24.8 0.7 17 13.2 SSE 7 11 4 6 1018.3 - 0.0
29/05:00pm 28.2 24.1 0.0 16 13.5 SSE 11 19 6 10 1018.0 - 0.0
29/04:30pm 28.8 25.6 -0.3 15 13.9 W 6 11 3 6 1018.0 - 0.0
29/04:00pm 28.8 25.6 0.6 16 13.7 SSE 7 13 4 7 1018.0 - 0.0
29/03:30pm 28.6 24.6 0.5 16 13.6 E 11 17 6 9 1018.1 - 0.0
29/03:00pm 28.3 24.8 1.0 17 13.3 ESE 9 13 5 7 1018.2 1017.6 0.0
29/02:30pm 28.0 23.0 -1.4 14 13.7 S 15 26 8 14 1018.5 - 0.0
29/02:00pm 28.4 24.6 -0.4 15 13.7 SE 9 17 5 9 1019.0 - 0.0
29/01:30pm 28.8 25.1 -0.3 15 13.9 SSE 9 20 5 11 1019.4 - 0.0
29/01:00pm 27.8 22.9 -0.6 15 13.4 SE 15 26 8 14 1020.1 - 0.0
29/12:30pm 28.1 23.3 0.5 16 13.3 ESE 15 22 8 12 1020.6 - 0.0
29/12:00pm 28.1 23.7 0.1 16 13.4 SSE 13 26 7 14 1020.9 1020.3 0.0
29/11:30am 27.6 22.8 0.5 17 13.0 ESE 15 20 8 11 1021.3 - 0.0
29/11:00am 26.4 21.6 0.2 18 12.4 ESE 15 22 8 12 1021.7 - 0.0
29/10:30am 24.7 21.9 3.3 25 10.6 ESE 7 13 4 7 1022.2 - 0.0
29/10:00am 22.6 19.6 4.0 29 9.2 ESE 9 13 5 7 1022.2 - 0.0
29/09:30am 20.3 17.8 5.0 36 7.6 ESE 7 13 4 7 1021.9 - 0.0
29/09:00am 17.4 16.4 5.6 45 5.8 CALM 0 6 0 3 1021.8 1021.3 0.0
29/08:30am 14.0 13.3 6.9 62 3.5 CALM 0 4 0 2 1021.6 - 0.0
29/08:00am 9.4 7.3 6.0 79 1.6 SW 6 7 3 4 1021.2 - 0.0
29/07:30am 7.4 6.4 5.4 87 0.9 CALM 0 0 0 0 1021.1 - 0.0
29/07:00am 7.7 6.6 5.3 85 1.1 CALM 0 0 0 0 1020.8 - 0.0
29/06:30am 9.3 6.9 5.4 76 1.8 S 7 9 4 5 1020.6 - 0.0
29/06:00am 9.6 6.9 5.5 75 1.9 S 9 9 5 5 1020.5 1019.9 0.0
29/05:30am 9.0 8.1 6.0 81 1.4 CALM 0 0 0 0 1020.2 - 0.0
29/05:00am 9.6 7.2 5.3 74 2.0 SSW 7 9 4 5 1020.0 - 0.0
29/04:30am 8.7 6.4 5.7 81 1.4 SW 7 9 4 5 1020.0 - 0.0
29/04:00am 9.1 8.1 5.4 77 1.7 CALM 0 0 0 0 1020.0 - 0.0
29/03:30am 9.5 8.6 6.1 79 1.6 CALM 0 0 0 0 1020.0 - 0.0
29/03:00am 9.8 7.7 5.7 75 1.9 SW 6 7 3 4 1020.1 1019.5 0.0
29/02:30am 9.8 8.9 6.0 77 1.8 CALM 0 0 0 0 1020.2 - 0.0
29/02:00am 9.9 8.9 5.8 75 1.9 CALM 0 0 0 0 1020.3 - 0.0
29/01:30am 10.8 9.9 5.9 72 2.3 CALM 0 0 0 0 1020.6 - 0.0
29/01:00am 10.9 10.0 6.0 72 2.3 CALM 0 0 0 0 1020.5 - 0.0
29/12:30am 11.4 10.5 6.1 70 2.5 CALM 0 0 0 0 1020.6 - 0.0
29/12:00am 11.5 10.7 6.3 70 2.5 CALM 0 0 0 0 1020.7 1020.1 0.0
 
Date/Time
CST
Temp
°C
App
Temp
°C
Dew
Point
Rel
Hum
%
Delta-T
°C
Wind Press
QNH
hPa
Press
MSL
hPa
Rain
since 9 am
mm
Dir
 
Spd
km/h
Gust
km/h
Spd
kts
Gust
kts
28/11:30pm 11.9 10.8 7.0 72 2.4 S 2 6 1 3 1020.7 - 0.0
28/11:00pm 12.3 10.0 5.8 64 3.1 S 7 11 4 6 1020.8 - 0.0
28/10:30pm 13.3 12.0 6.0 61 3.5 S 2 6 1 3 1020.7 - 0.0
28/10:00pm 14.3 12.3 6.3 58 3.9 S 6 7 3 4 1020.6 - 0.0
28/09:30pm 15.5 13.5 6.1 53 4.6 SSE 6 7 3 4 1020.4 - 0.0
28/09:00pm 15.1 14.3 6.6 57 4.2 CALM 0 0 0 0 1020.2 1019.6 0.0
28/08:30pm 16.4 13.8 6.3 51 5.0 S 9 11 5 6 1019.8 - 0.0
28/08:00pm 17.3 15.4 6.8 50 5.3 S 6 7 3 4 1019.4 - 0.0
28/07:30pm 17.4 17.1 8.8 57 4.5 CALM 0 0 0 0 1019.1 - 0.0
28/07:00pm 20.0 19.9 9.6 51 5.6 CALM 0 0 0 0 1018.7 - 0.0
28/06:59pm 20.0 19.9 9.6 51 5.6 CALM 0 0 0 0 1018.6 - 0.0
28/06:30pm 25.1 22.5 3.4 24 10.8 W 6 7 3 4 1018.3 - 0.0
28/06:00pm 26.5 23.7 3.1 22 11.7 W 7 9 4 5 1018.2 1017.6 0.0
28/05:30pm 27.7 25.1 3.1 20 12.4 S 6 9 3 5 1017.9 - 0.0
28/05:00pm 28.1 25.5 3.2 20 12.6 SSW 6 9 3 5 1017.8 - 0.0
28/04:30pm 28.3 23.9 0.6 16 13.4 N 13 24 7 13 1018.0 - 0.0
28/04:00pm 28.4 24.8 0.4 16 13.5 N 9 19 5 10 1018.1 - 0.0
28/03:30pm 28.8 25.4 1.7 17 13.4 SE 9 15 5 8 1018.2 - 0.0
28/03:00pm 28.3 23.9 0.2 16 13.5 E 13 22 7 12 1018.5 1017.9 0.0
28/02:30pm 28.3 24.8 1.0 17 13.3 E 9 19 5 10 1018.8 - 0.0
28/02:00pm 27.8 23.8 0.2 16 13.2 SE 11 19 6 10 1019.5 - 0.0
28/01:30pm 27.9 23.6 0.8 17 13.1 E 13 22 7 12 1020.1 - 0.0
28/01:00pm 27.4 23.1 0.9 18 12.8 NE 13 20 7 11 1020.5 - 0.0

Other Formats:

Comma delimited format used in spreadsheet applications
http://www.bom.gov.au/fwo/IDD60801/IDD60801.95322.axf

JavaScript Object Notation format (JSON) in row-major order
http://www.bom.gov.au/fwo/IDD60801/IDD60801.95322.json